Time;durP1;ratioP1;P1;durP2;ratioP2;P2;SDS_P1;SDS_P2;PMS_P1;PMS_P2;Temp;Humidity;BMP_temperature;BMP_pressure;BME280_temperature;BME280_humidity;BME280_pressure;Samples;Min_cycle;Max_cycle;Signal;HPM_P1;HPM_P2
2022/08/13 00:01:30;;;;;;;21.80;13.50;;;;;;;19.85;65.61;99099.38;107862;1274;97454;-65
2022/08/13 00:04:08;;;;;;;21.30;14.20;;;;;;;19.86;65.77;99096.38;107912;1274;107891;-66
2022/08/13 00:09:22;;;;;;;24.50;16.60;;;;;;;19.85;65.83;99095.41;107905;1274;97742;-65
2022/08/13 00:15:27;;;;;;;23.70;13.50;;;;;;;19.85;66.05;99087.34;107876;1274;99215;-66
2022/08/13 00:18:07;;;;;;;23.00;14.30;;;;;;;19.84;66.02;99078.52;107942;1273;107843;-66
2022/08/13 00:20:51;;;;;;;23.90;14.60;;;;;;;19.84;66.08;99077.28;107969;1274;96992;-66
2022/08/13 00:23:26;;;;;;;24.50;15.60;;;;;;;19.84;66.11;99070.64;107859;1274;97108;-66
2022/08/13 00:26:14;;;;;;;24.50;15.50;;;;;;;19.84;66.17;99060.65;107923;1274;112723;-66
2022/08/13 00:28:55;;;;;;;26.00;16.60;;;;;;;19.84;66.19;99051.98;107963;1272;97097;-66
2022/08/13 00:31:25;;;;;;;25.00;15.30;;;;;;;19.84;66.15;99050.23;107863;1274;107915;-66
2022/08/13 00:33:54;;;;;;;27.00;16.60;;;;;;;19.83;66.37;99045.08;107925;1274;97054;-65
2022/08/13 00:36:23;;;;;;;26.50;16.10;;;;;;;19.83;66.34;99041.25;107969;1272;97109;-66
2022/08/13 00:39:07;;;;;;;25.20;15.90;;;;;;;19.82;66.42;99038.35;107953;1272;112628;-65
2022/08/13 00:41:40;;;;;;;26.00;16.30;;;;;;;19.82;66.41;99036.00;107938;1273;97070;-65
2022/08/13 00:44:31;;;;;;;25.30;15.90;;;;;;;19.82;66.49;99030.64;107914;1274;107870;-66
2022/08/13 00:49:50;;;;;;;28.20;16.80;;;;;;;19.81;66.67;99022.73;107933;1274;97064;-65
2022/08/13 00:52:38;;;;;;;28.20;17.70;;;;;;;19.81;66.69;99023.48;107953;1273;112931;-67
2022/08/13 00:55:09;;;;;;;28.00;16.70;;;;;;;19.80;66.66;99015.77;107950;1273;97046;-66
2022/08/13 00:57:39;;;;;;;28.90;18.30;;;;;;;19.78;66.72;99010.66;107849;1274;107762;-66
2022/08/13 01:00:13;;;;;;;27.80;17.80;;;;;;;19.81;66.72;99008.23;107859;1274;97242;-66
2022/08/13 01:02:43;;;;;;;30.20;17.30;;;;;;;19.80;66.72;99007.39;107885;1274;97070;-67
2022/08/13 01:05:25;;;;;;;27.40;17.20;;;;;;;19.78;66.74;99002.16;107952;1272;112831;-66
2022/08/13 01:08:09;;;;;;;27.90;17.30;;;;;;;19.78;66.90;99001.36;107901;1274;97345;-67
2022/08/13 01:10:48;;;;;;;28.60;17.50;;;;;;;19.78;67.00;98999.73;107922;1274;108002;-66
2022/08/13 01:13:25;;;;;;;29.20;17.80;;;;;;;19.78;66.95;98995.04;107919;1274;96989;-65
2022/08/13 01:16:01;;;;;;;27.90;17.30;;;;;;;19.77;66.88;98990.83;107979;1274;97087;-65
2022/08/13 01:18:31;;;;;;;27.80;17.50;;;;;;;19.77;66.97;98991.67;107925;1274;112797;-66
2022/08/13 01:21:08;;;;;;;27.20;17.10;;;;;;;19.77;67.07;98992.65;107922;1273;97450;-66
2022/08/13 01:23:39;;;;;;;25.90;16.70;;;;;;;19.76;67.15;98988.75;107936;1274;107689;-67
2022/08/13 01:26:10;;;;;;;27.60;16.50;;;;;;;19.76;67.15;98987.83;107923;1274;97055;-66
2022/08/13 01:28:39;;;;;;;31.10;18.20;;;;;;;19.76;67.11;98991.64;107935;1274;97122;-67
2022/08/13 01:31:11;;;;;;;29.20;17.40;;;;;;;19.76;67.12;98988.48;107907;1274;112714;-66
2022/08/13 01:33:50;;;;;;;27.10;17.20;;;;;;;19.74;67.25;98985.35;107966;1274;97115;-67
2022/08/13 01:36:21;;;;;;;28.40;17.20;;;;;;;19.74;67.33;98980.86;107916;1274;108079;-67
2022/08/13 01:39:10;;;;;;;30.00;17.80;;;;;;;19.75;67.37;98983.04;107883;1274;97330;-67
2022/08/13 01:41:46;;;;;;;29.70;18.70;;;;;;;19.73;67.38;98982.25;107968;1274;97024;-67
2022/08/13 01:44:25;;;;;;;28.30;17.80;;;;;;;19.71;67.45;98980.50;107961;1273;112746;-66
2022/08/13 01:53:04;;;;;;;33.90;19.00;;;;;;;19.69;67.63;98988.70;107931;1273;97114;-66
2022/08/13 01:55:37;;;;;;;33.30;19.10;;;;;;;19.68;67.64;98990.02;107907;1274;97416;-66
2022/08/13 01:58:29;;;;;;;33.50;20.10;;;;;;;19.67;67.63;98987.70;107954;1273;112889;-67
2022/08/13 02:01:04;;;;;;;33.50;20.40;;;;;;;19.65;67.64;98985.34;107861;1274;98592;-67
2022/08/13 02:03:39;;;;;;;33.30;20.20;;;;;;;19.64;67.82;98986.12;107914;1274;108322;-68
2022/08/13 02:06:13;;;;;;;33.50;20.10;;;;;;;19.63;67.73;98982.27;107943;1274;97139;-67
2022/08/13 02:08:57;;;;;;;32.00;19.10;;;;;;;19.62;67.68;98976.00;107817;1274;98765;-67
2022/08/13 02:11:33;;;;;;;30.90;18.40;;;;;;;19.62;67.84;98978.27;107862;1274;112868;-67
2022/08/13 02:14:16;;;;;;;33.10;19.90;;;;;;;19.62;67.90;98977.59;107926;1274;97052;-67
2022/08/13 02:16:50;;;;;;;32.80;19.90;;;;;;;19.62;67.84;98977.05;107919;1273;107737;-67
2022/08/13 02:19:20;;;;;;;32.50;18.70;;;;;;;19.59;67.95;98975.54;107979;1272;97044;-66
2022/08/13 02:21:58;;;;;;;33.00;20.30;;;;;;;19.60;67.95;98978.38;107950;1274;96994;-65
2022/08/13 02:24:35;;;;;;;34.00;20.10;;;;;;;19.59;68.10;98975.56;107929;1273;112888;-65
2022/08/13 02:27:04;;;;;;;32.40;19.50;;;;;;;19.58;68.06;98975.34;107959;1273;97048;-66
2022/08/13 02:29:33;;;;;;;33.20;19.50;;;;;;;19.57;68.15;98973.23;107922;1273;107804;-66
2022/08/13 02:32:02;;;;;;;31.60;18.00;;;;;;;19.57;68.09;98973.21;107931;1274;97297;-66
2022/08/13 02:34:44;;;;;;;30.00;17.70;;;;;;;19.58;68.21;98966.92;107941;1274;97416;-66
2022/08/13 02:37:14;;;;;;;29.30;18.60;;;;;;;19.57;68.26;98961.79;107825;1274;112673;-66
2022/08/13 02:40:04;;;;;;;28.20;17.40;;;;;;;19.57;68.35;98957.80;107780;1274;97126;-66
2022/08/13 02:42:35;;;;;;;30.00;17.70;;;;;;;19.56;68.29;98956.63;107923;1272;107953;-65
2022/08/13 02:45:05;;;;;;;26.30;16.50;;;;;;;19.54;68.25;98951.27;107955;1272;97294;-65
2022/08/13 02:47:39;;;;;;;30.10;17.20;;;;;;;19.55;68.34;98951.96;107944;1273;97437;-66
2022/08/13 02:50:11;;;;;;;26.80;15.70;;;;;;;19.54;68.44;98952.96;107910;1274;112910;-66
2022/08/13 02:52:41;;;;;;;27.30;17.80;;;;;;;19.53;68.47;98951.45;107932;1274;97021;-66
2022/08/13 02:55:29;;;;;;;27.10;15.70;;;;;;;19.52;68.42;98951.80;107884;1274;107663;-66
2022/08/13 02:58:03;;;;;;;26.60;16.10;;;;;;;19.47;68.49;98950.62;107942;1274;97196;-66
2022/08/13 03:00:32;;;;;;;28.50;16.40;;;;;;;19.50;68.50;98959.27;107874;1272;97028;-65
2022/08/13 03:03:03;;;;;;;26.60;17.00;;;;;;;19.51;68.60;98954.38;107950;1272;111365;-65
2022/08/13 03:05:38;;;;;;;25.30;15.70;;;;;;;19.49;68.56;98950.27;107977;1274;97111;-67
2022/08/13 03:08:29;;;;;;;26.40;16.50;;;;;;;19.49;68.67;98955.67;107898;1273;107871;-67
2022/08/13 03:11:10;;;;;;;25.60;16.30;;;;;;;19.47;68.76;98957.96;107937;1274;97048;-66
2022/08/13 03:13:43;;;;;;;25.30;16.10;;;;;;;19.46;68.82;98961.48;107819;1274;97027;-67
2022/08/13 03:16:18;;;;;;;25.50;16.70;;;;;;;19.47;68.72;98967.58;107939;1274;111908;-66
2022/08/13 03:18:46;;;;;;;24.00;15.70;;;;;;;19.47;68.83;98968.41;107865;1274;97491;-66
2022/08/13 03:21:26;;;;;;;24.80;16.00;;;;;;;19.47;68.79;98971.32;107920;1274;108790;-67
2022/08/13 03:24:17;;;;;;;24.60;15.10;;;;;;;19.44;68.90;98970.21;107885;1273;97380;-67
2022/08/13 03:26:57;;;;;;;24.40;15.50;;;;;;;19.45;68.96;98974.60;107935;1273;97291;-67
2022/08/13 03:29:26;;;;;;;26.20;15.60;;;;;;;19.45;68.98;98976.25;107921;1274;112883;-67
2022/08/13 03:32:14;;;;;;;27.80;15.80;;;;;;;19.44;68.98;98981.85;107849;1274;97515;-67
2022/08/13 03:34:45;;;;;;;26.90;16.40;;;;;;;19.39;68.97;98982.23;107914;1274;107548;-67
2022/08/13 03:37:21;;;;;;;26.20;15.70;;;;;;;19.39;69.00;98984.78;102772;1309;635820;-67
2022/08/13 03:39:52;;;;;;;28.20;17.20;;;;;;;19.32;69.06;98984.60;105318;1284;93922;-65
2022/08/13 03:42:23;;;;;;;25.50;15.50;;;;;;;19.29;69.21;98983.55;105351;1284;94251;-66
2022/08/13 03:45:13;;;;;;;26.30;15.40;;;;;;;19.25;69.29;98982.77;105875;1280;107688;-66
2022/08/13 03:47:43;;;;;;;27.00;15.90;;;;;;;19.22;69.24;98986.48;106198;1274;93949;-67
2022/08/13 03:50:17;;;;;;;27.40;16.40;;;;;;;19.17;69.32;98978.50;104433;1273;2499284;-66
2022/08/13 03:52:47;;;;;;;25.20;15.50;;;;;;;19.15;69.43;98973.09;106393;1271;94318;-66
2022/08/13 03:55:18;;;;;;;25.90;15.30;;;;;;;19.13;69.37;98966.27;106399;1271;94484;-66
2022/08/13 03:57:50;;;;;;;24.70;15.70;;;;;;;19.11;69.55;98967.19;106358;1271;105404;-67
2022/08/13 04:00:49;;;;;;;24.50;15.80;;;;;;;19.09;69.65;98965.98;106357;1271;94319;-70
2022/08/13 04:03:30;;;;;;;24.20;16.50;;;;;;;19.09;69.61;98962.98;106322;1271;107713;-66
2022/08/13 04:06:02;;;;;;;27.00;15.10;;;;;;;19.06;69.65;98966.65;106357;1271;96279;-66
2022/08/13 04:08:35;;;;;;;26.00;15.30;;;;;;;19.04;69.74;98967.39;106338;1271;95186;-66
2022/08/13 04:11:08;;;;;;;26.60;14.90;;;;;;;19.04;69.75;98969.41;106206;1271;108687;-66
2022/08/13 04:13:39;;;;;;;23.80;14.10;;;;;;;19.03;69.82;98968.42;106249;1270;95758;-66
2022/08/13 04:16:27;;;;;;;22.50;12.90;;;;;;;19.01;69.89;98972.27;106226;1271;108290;-67
2022/08/13 04:19:02;;;;;;;23.20;12.90;;;;;;;18.98;69.77;98971.13;106212;1271;94268;-66
2022/08/13 04:21:37;;;;;;;22.00;13.00;;;;;;;18.95;69.87;98972.66;106262;1271;94364;-68
2022/08/13 04:24:11;;;;;;;22.80;13.80;;;;;;;18.91;69.79;98970.64;106201;1271;109259;-64
2022/08/13 04:26:43;;;;;;;21.70;13.50;;;;;;;18.88;69.97;98967.13;106305;1271;95133;-67
2022/08/13 04:29:16;;;;;;;24.30;14.90;;;;;;;18.86;70.10;98966.12;106225;1271;108276;-65
2022/08/13 04:31:48;;;;;;;23.00;15.10;;;;;;;18.86;70.08;98967.53;106280;1270;94333;-67
2022/08/13 04:34:28;;;;;;;26.10;16.20;;;;;;;18.84;70.16;98969.71;106212;1271;95183;-67
2022/08/13 04:37:11;;;;;;;22.90;14.50;;;;;;;18.83;70.18;98969.30;106316;1271;109332;-66
2022/08/13 04:39:53;;;;;;;25.10;16.20;;;;;;;18.82;70.21;98970.89;106210;1271;94232;-68
2022/08/13 04:42:48;;;;;;;24.00;14.60;;;;;;;18.81;70.27;98965.27;106187;1271;108338;-66
2022/08/13 04:45:21;;;;;;;26.20;16.50;;;;;;;18.80;70.29;98961.73;106234;1271;95130;-67
2022/08/13 04:47:58;;;;;;;24.60;15.40;;;;;;;18.82;70.35;98961.33;106247;1271;95195;-67
2022/08/13 04:50:34;;;;;;;25.10;15.40;;;;;;;18.83;70.41;98962.51;106272;1271;107938;-66
2022/08/13 04:53:10;;;;;;;24.80;16.40;;;;;;;18.84;70.43;98962.01;106362;1271;95281;-66
2022/08/13 04:55:40;;;;;;;27.40;15.90;;;;;;;18.86;70.45;98958.53;106345;1271;107751;-67
2022/08/13 04:58:35;;;;;;;26.60;16.20;;;;;;;18.88;70.49;98956.38;106243;1270;95746;-68
2022/08/13 05:01:09;;;;;;;25.30;16.00;;;;;;;18.90;70.60;98950.25;106065;1271;95240;-67
2022/08/13 05:03:58;;;;;;;27.90;16.00;;;;;;;18.92;70.63;98951.83;106175;1271;110403;-66
2022/08/13 05:06:46;;;;;;;24.40;16.20;;;;;;;18.95;70.64;98948.09;106164;1271;95229;-68
2022/08/13 05:09:19;;;;;;;24.00;16.10;;;;;;;18.97;70.71;98945.17;106222;1271;107845;-65
2022/08/13 05:11:59;;;;;;;23.40;14.80;;;;;;;18.99;70.66;98949.33;106246;1271;95727;-67
2022/08/13 05:14:35;;;;;;;25.90;17.50;;;;;;;19.01;70.73;98950.11;106251;1271;94256;-65
2022/08/13 05:17:09;;;;;;;24.70;15.90;;;;;;;19.03;70.79;98948.66;106267;1271;108996;-65
2022/08/13 05:19:47;;;;;;;26.00;16.70;;;;;;;19.04;70.72;98940.07;106223;1271;95279;-62
2022/08/13 05:22:22;;;;;;;24.40;16.20;;;;;;;19.06;70.94;98941.85;106083;1272;106726;-68
2022/08/13 05:24:57;;;;;;;24.40;15.50;;;;;;;19.07;70.82;98938.85;106054;1271;95115;-65
2022/08/13 05:27:45;;;;;;;26.30;16.60;;;;;;;19.09;70.92;98940.10;106245;1271;95062;-66
2022/08/13 05:30:14;;;;;;;24.30;16.20;;;;;;;19.09;70.85;98941.34;106179;1271;109363;-66
2022/08/13 05:33:00;;;;;;;25.50;16.20;;;;;;;19.11;71.05;98948.33;105955;1272;95874;-68
2022/08/13 05:35:37;;;;;;;22.80;16.00;;;;;;;19.13;71.05;98949.70;105986;1271;108298;-68
2022/08/13 05:38:33;;;;;;;25.00;15.20;;;;;;;19.15;70.97;98945.56;106047;1271;95195;-66
2022/08/13 05:41:13;;;;;;;24.20;15.90;;;;;;;19.16;70.94;98939.27;106054;1271;95250;-68
2022/08/13 05:43:42;;;;;;;25.60;15.20;;;;;;;19.18;71.10;98936.38;106053;1271;109108;-68
2022/08/13 05:46:19;;;;;;;25.00;15.30;;;;;;;19.19;71.05;98939.14;106021;1271;95263;-66
2022/08/13 05:48:57;;;;;;;27.20;17.10;;;;;;;19.19;71.13;98943.95;106085;1274;107422;-64
2022/08/13 05:51:29;;;;;;;24.40;17.30;;;;;;;19.21;70.99;98944.39;106129;1272;95788;-65
2022/08/13 05:54:19;;;;;;;25.50;17.20;;;;;;;19.22;71.11;98947.49;106102;1272;95262;-67
2022/08/13 05:57:11;;;;;;;26.70;16.90;;;;;;;19.22;71.06;98942.80;106053;1271;109509;-69
2022/08/13 06:05:16;;;;;;;26.00;16.80;;;;;;;19.25;71.27;98923.47;106238;1271;95147;-66
2022/08/13 06:07:46;;;;;;;23.50;16.40;;;;;;;19.26;71.16;98915.23;106143;1271;95612;-64
2022/08/13 06:10:18;;;;;;;26.90;16.70;;;;;;;19.27;71.22;98910.81;106124;1271;109256;-64
2022/08/13 06:12:47;;;;;;;23.90;15.90;;;;;;;19.29;71.23;98912.02;106014;1274;95265;-65
2022/08/13 06:15:26;;;;;;;24.40;16.00;;;;;;;19.30;71.34;98912.40;106009;1271;108226;-66
2022/08/13 06:18:15;;;;;;;24.30;16.10;;;;;;;19.33;71.38;98912.41;106073;1271;95172;-68
2022/08/13 06:20:58;;;;;;;23.60;15.70;;;;;;;19.36;71.42;98911.40;106047;1272;94834;-66
2022/08/13 06:23:28;;;;;;;25.50;16.70;;;;;;;19.38;71.43;98914.22;106009;1271;109360;-64
2022/08/13 06:26:00;;;;;;;25.60;16.70;;;;;;;19.41;71.32;98915.23;105971;1271;95233;-62
2022/08/13 06:28:32;;;;;;;24.80;15.90;;;;;;;19.42;71.48;98913.61;106028;1271;107825;-63
2022/08/13 06:31:03;;;;;;;25.10;16.20;;;;;;;19.44;71.40;98913.71;105923;1271;94244;-64
2022/08/13 06:33:36;;;;;;;24.50;15.90;;;;;;;19.47;71.46;98921.55;105864;1271;95175;-66
2022/08/13 06:36:28;;;;;;;23.20;14.00;;;;;;;19.48;71.40;98919.19;105934;1271;109448;-66
2022/08/13 06:39:02;;;;;;;26.10;15.70;;;;;;;19.51;71.51;98914.80;106036;1271;95244;-66
2022/08/13 06:41:32;;;;;;;22.30;14.50;;;;;;;19.53;71.46;98909.52;106138;1271;107533;-64
2022/08/13 06:44:20;;;;;;;23.50;14.80;;;;;;;19.58;71.66;98907.92;106060;1273;95176;-70
2022/08/13 06:46:52;;;;;;;22.80;15.10;;;;;;;19.61;71.63;98907.54;106053;1271;95872;-67
2022/08/13 06:49:25;;;;;;;23.00;14.50;;;;;;;19.65;71.66;98911.98;106121;1271;109288;-70
2022/08/13 06:52:13;;;;;;;21.90;14.60;;;;;;;19.68;71.67;98914.92;106060;1271;95194;-70
2022/08/13 06:54:43;;;;;;;25.00;14.50;;;;;;;19.70;71.71;98913.52;106123;1271;107732;-67
2022/08/13 06:57:19;;;;;;;22.70;14.20;;;;;;;19.73;71.68;98908.89;106014;1271;95243;-66
2022/08/13 06:59:49;;;;;;;21.90;13.90;;;;;;;19.74;71.62;98907.00;106044;1273;95227;-68
2022/08/13 07:02:43;;;;;;;21.30;13.90;;;;;;;19.75;71.65;98899.10;106034;1273;109340;-70
2022/08/13 07:05:12;;;;;;;23.80;13.80;;;;;;;19.77;71.72;98899.92;106170;1271;95576;-74
2022/08/13 07:07:48;;;;;;;24.90;13.70;;;;;;;19.79;71.60;98898.49;106133;1271;108329;-66
2022/08/13 07:10:17;;;;;;;21.90;13.50;;;;;;;19.81;71.66;98895.43;106200;1271;95734;-69
2022/08/13 07:12:45;;;;;;;20.70;13.20;;;;;;;19.82;71.61;98894.37;106192;1271;95205;-69
2022/08/13 07:15:16;;;;;;;21.40;13.40;;;;;;;19.83;71.75;98892.44;106088;1271;108814;-74
2022/08/13 07:18:06;;;;;;;22.20;12.90;;;;;;;19.86;71.73;98896.33;106101;1271;94233;-74
2022/08/13 07:20:36;;;;;;;20.80;12.70;;;;;;;19.86;71.71;98898.41;106117;1271;107682;-75
2022/08/13 07:23:05;;;;;;;21.50;12.60;;;;;;;19.89;71.73;98903.55;106280;1271;94393;-75
2022/08/13 07:25:57;;;;;;;19.90;12.30;;;;;;;19.89;71.80;98906.34;106119;1271;95293;-72
2022/08/13 07:28:29;;;;;;;21.50;12.10;;;;;;;19.91;71.71;98907.99;106135;1271;108698;-71
2022/08/13 07:31:25;;;;;;;26.00;12.10;;;;;;;19.92;71.83;98907.90;106138;1271;95798;-69
2022/08/13 07:34:13;;;;;;;20.20;12.40;;;;;;;19.92;71.98;98906.74;106142;1271;108378;-70
2022/08/13 07:36:41;;;;;;;20.90;12.10;;;;;;;19.93;71.72;98905.92;106234;1271;95182;-72
2022/08/13 07:39:26;;;;;;;19.60;11.40;;;;;;;19.94;71.92;98905.45;106139;1271;95045;-69
2022/08/13 07:41:55;;;;;;;23.20;12.70;;;;;;;19.96;71.83;98906.23;106054;1271;108453;-75
2022/08/13 07:44:32;;;;;;;19.80;12.20;;;;;;;19.96;71.76;98903.13;106184;1271;93792;-75
2022/08/13 07:47:14;;;;;;;19.80;12.00;;;;;;;19.96;71.81;98905.81;106143;1271;106722;-68
2022/08/13 07:49:46;;;;;;;22.20;12.70;;;;;;;19.96;71.88;98903.96;108010;1271;94427;-70
2022/08/13 07:52:15;;;;;;;19.60;11.60;;;;;;;19.95;71.75;98898.33;107983;1271;94320;-69
2022/08/13 07:54:46;;;;;;;21.00;12.10;;;;;;;19.96;71.72;98898.83;107933;1271;108681;-70
2022/08/13 07:57:20;;;;;;;21.10;12.00;;;;;;;19.97;71.89;98899.06;107801;1271;95156;-69
2022/08/13 08:00:17;;;;;;;20.70;12.30;;;;;;;19.98;71.97;98896.63;106204;1271;107790;-70
2022/08/13 08:03:01;;;;;;;19.50;11.60;;;;;;;19.99;71.86;98896.52;106249;1271;97072;-72
2022/08/13 08:05:34;;;;;;;20.10;12.10;;;;;;;20.00;71.84;98893.67;106248;1269;96625;-68
2022/08/13 08:08:10;;;;;;;24.00;12.50;;;;;;;19.99;72.00;98893.41;106114;1271;110807;-70
2022/08/13 08:10:55;;;;;;;21.80;12.60;;;;;;;19.97;71.87;98888.02;106201;1271;94677;-69
2022/08/13 08:13:26;;;;;;;23.10;13.50;;;;;;;19.97;71.92;98883.74;106213;1273;108118;-69
2022/08/13 08:15:57;;;;;;;21.00;13.60;;;;;;;19.97;71.80;98884.45;106194;1271;96956;-74
2022/08/13 08:18:32;;;;;;;21.10;13.10;;;;;;;19.99;71.96;98880.83;106182;1271;96609;-71
2022/08/13 08:21:24;;;;;;;22.50;15.60;;;;;;;20.01;72.04;98883.41;106157;1271;110104;-68
2022/08/13 08:24:15;;;;;;;23.30;15.20;;;;;;;20.02;72.09;98880.30;106069;1273;94228;-69
2022/08/13 08:27:01;;;;;;;23.60;13.70;;;;;;;20.02;71.95;98877.16;106065;1271;107879;-67
2022/08/13 08:29:32;;;;;;;22.60;14.40;;;;;;;20.02;72.11;98884.17;106048;1271;94242;-69
2022/08/13 08:32:10;;;;;;;23.00;14.20;;;;;;;20.02;72.04;98882.92;106099;1271;96577;-68
2022/08/13 08:34:44;;;;;;;22.00;13.50;;;;;;;20.03;72.05;98881.20;106123;1273;111137;-75
2022/08/13 08:43:21;;;;;;;24.10;14.80;;;;;;;20.16;72.13;98870.91;106061;1271;96517;-76
2022/08/13 08:45:53;;;;;;;22.70;14.90;;;;;;;20.21;72.23;98874.48;106008;1271;96414;-76
2022/08/13 08:48:42;;;;;;;23.10;14.70;;;;;;;20.24;72.12;98870.01;106151;1271;110068;-79
2022/08/13 08:51:24;;;;;;;25.90;15.70;;;;;;;20.29;72.08;98870.99;106198;1271;96526;-76
2022/08/13 08:53:56;;;;;;;25.00;15.30;;;;;;;20.32;72.10;98868.20;106189;1271;106515;-76
2022/08/13 08:56:48;;;;;;;23.60;15.00;;;;;;;20.36;72.08;98869.63;106206;1271;96610;-72
2022/08/13 08:59:29;;;;;;;21.80;14.70;;;;;;;20.46;72.06;98866.91;106128;1271;94321;-74
2022/08/13 09:02:00;;;;;;;22.80;14.10;;;;;;;20.60;72.08;98869.11;106062;1271;109792;-78
2022/08/13 09:04:32;;;;;;;23.20;15.10;;;;;;;20.86;72.18;98865.61;106169;1271;96476;-77
2022/08/13 09:07:24;;;;;;;21.40;14.20;;;;;;;21.17;72.25;98864.34;106220;1271;107751;-84
2022/08/13 09:10:00;;;;;;;23.90;14.60;;;;;;;21.36;72.16;98861.83;106369;1271;96546;-73
2022/08/13 09:12:34;;;;;;;22.70;14.10;;;;;;;21.50;72.17;98863.06;106234;1271;96387;-73
2022/08/13 09:15:05;;;;;;;22.90;14.80;;;;;;;21.55;72.15;98864.25;106132;1271;110471;-73
2022/08/13 09:17:36;;;;;;;22.90;15.20;;;;;;;21.60;71.98;98859.27;106217;1271;94226;-79
2022/08/13 09:20:16;;;;;;;23.70;15.20;;;;;;;21.61;71.85;98857.21;106138;1271;107793;-73
2022/08/13 09:22:47;;;;;;;26.30;14.30;;;;;;;21.62;71.90;98854.07;106201;1271;96539;-78
2022/08/13 09:25:26;;;;;;;23.80;14.90;;;;;;;21.71;72.05;98851.77;106108;1272;96518;-74
2022/08/13 09:27:57;;;;;;;21.60;14.10;;;;;;;21.90;71.98;98846.66;106250;1271;110198;-77
2022/08/13 09:30:45;;;;;;;22.80;15.00;;;;;;;22.23;72.10;98844.21;106247;1271;96582;-82
2022/08/13 09:33:23;;;;;;;23.80;14.20;;;;;;;22.48;71.78;98844.36;106325;1271;107746;-78
2022/08/13 09:36:11;;;;;;;21.20;14.30;;;;;;;22.64;71.72;98838.91;106145;1271;96626;-76
2022/08/13 09:38:50;;;;;;;29.80;15.80;;;;;;;22.83;71.78;98832.72;106186;1273;96664;-82
2022/08/13 09:41:31;;;;;;;21.90;15.10;;;;;;;23.01;71.76;98826.05;106249;1271;109984;-76
2022/08/13 09:44:05;;;;;;;24.00;15.70;;;;;;;23.12;71.67;98829.00;106206;1272;96558;-78
2022/08/13 09:46:46;;;;;;;23.20;13.60;;;;;;;23.22;71.68;98824.48;106134;1271;107655;-76
2022/08/13 09:49:21;;;;;;;21.50;14.10;;;;;;;23.31;71.55;98826.00;106204;1271;97098;-78
2022/08/13 09:52:11;;;;;;;23.50;14.00;;;;;;;23.41;71.60;98826.31;106132;1273;95283;-73
2022/08/13 09:54:49;;;;;;;21.60;13.80;;;;;;;23.45;71.48;98828.20;106130;1272;110055;-73
2022/08/13 09:57:20;;;;;;;21.20;13.50;;;;;;;23.46;71.42;98827.70;106124;1273;96609;-76
2022/08/13 09:59:50;;;;;;;23.30;14.40;;;;;;;23.44;71.30;98829.99;106333;1271;108354;-75
2022/08/13 10:02:25;;;;;;;23.90;13.40;;;;;;;23.45;71.24;98826.40;106251;1271;96806;-73
2022/08/13 10:04:57;;;;;;;22.30;13.60;;;;;;;23.42;71.09;98823.64;106141;1271;96503;-75
2022/08/13 10:07:25;;;;;;;20.60;12.90;;;;;;;23.41;71.16;98827.48;105932;1271;110037;-73
2022/08/13 10:09:54;;;;;;;23.70;13.30;;;;;;;23.44;71.12;98823.60;105989;1271;96338;-75
2022/08/13 10:12:44;;;;;;;28.90;13.00;;;;;;;23.48;70.95;98817.15;106131;1271;107788;-74
2022/08/13 10:15:15;;;;;;;29.20;15.10;;;;;;;23.51;70.79;98820.38;106112;1271;96540;-71
2022/08/13 10:17:55;;;;;;;32.40;16.20;;;;;;;23.53;70.83;98819.27;106230;1271;96490;-74
2022/08/13 10:20:37;;;;;;;21.50;13.60;;;;;;;23.53;70.78;98818.59;107997;1271;110084;-75
2022/08/13 10:23:10;;;;;;;21.90;12.50;;;;;;;23.50;70.51;98826.50;107934;1271;94759;-75
2022/08/13 10:25:38;;;;;;;20.10;12.40;;;;;;;23.49;70.59;98824.46;107899;1271;106737;-76
2022/08/13 10:28:22;;;;;;;21.10;11.90;;;;;;;23.50;70.45;98827.27;107908;1270;95220;-76
2022/08/13 10:31:01;;;;;;;19.70;12.30;;;;;;;23.46;70.14;98832.45;108006;1269;95035;-75
2022/08/13 10:33:53;;;;;;;20.00;12.40;;;;;;;23.40;70.01;98826.73;107928;1271;110035;-76
2022/08/13 10:36:29;;;;;;;21.60;11.60;;;;;;;23.44;70.11;98832.00;108005;1271;94849;-76
2022/08/13 10:39:06;;;;;;;20.50;12.10;;;;;;;23.51;70.01;98828.02;106184;1271;107792;-75
2022/08/13 10:41:44;;;;;;;21.60;11.70;;;;;;;23.57;69.98;98831.92;107990;1270;94589;-76
2022/08/13 10:44:31;;;;;;;20.20;12.00;;;;;;;23.62;69.86;98827.54;107812;1271;94550;-76
2022/08/13 10:47:01;;;;;;;20.40;11.80;;;;;;;23.69;69.94;98828.55;106453;1273;111072;-79
2022/08/13 10:49:33;;;;;;;23.90;11.90;;;;;;;23.75;69.85;98827.24;106278;1271;96663;-79
2022/08/13 10:52:02;;;;;;;20.60;12.40;;;;;;;23.80;69.66;98828.52;106200;1271;108555;-78
2022/08/13 10:54:34;;;;;;;21.90;12.60;;;;;;;23.85;69.73;98831.33;106086;1271;96570;-80
2022/08/13 10:57:08;;;;;;;20.50;12.70;;;;;;;23.86;69.50;98824.94;106193;1271;95059;-84
2022/08/13 10:59:45;;;;;;;20.80;12.10;;;;;;;23.84;69.49;98826.27;106113;1271;110115;-76
2022/08/13 11:02:13;;;;;;;19.80;11.70;;;;;;;23.85;69.43;98823.21;105964;1271;94313;-78
2022/08/13 11:04:47;;;;;;;20.20;12.50;;;;;;;23.86;69.37;98823.96;106190;1271;107718;-79
2022/08/13 11:07:22;;;;;;;19.60;11.90;;;;;;;23.87;69.45;98825.10;106122;1271;96649;-76
2022/08/13 11:09:54;;;;;;;20.10;11.90;;;;;;;23.85;69.14;98818.50;106018;1273;96564;-77
2022/08/13 11:12:24;;;;;;;20.60;11.40;;;;;;;23.85;69.22;98825.22;106085;1271;110048;-76
2022/08/13 11:14:56;;;;;;;21.10;12.20;;;;;;;23.84;69.03;98824.09;106206;1271;96597;-80
2022/08/13 11:17:25;;;;;;;20.10;12.40;;;;;;;23.81;69.00;98824.67;106286;1271;106760;-80
2022/08/13 11:20:19;;;;;;;23.30;12.50;;;;;;;23.81;68.83;98818.45;106078;1271;96515;-79
2022/08/13 11:22:56;;;;;;;21.20;12.10;;;;;;;23.82;68.97;98817.98;106256;1271;96513;-78
2022/08/13 11:25:28;;;;;;;19.40;11.40;;;;;;;23.81;68.95;98814.94;106244;1271;110022;-78
2022/08/13 11:28:15;;;;;;;20.20;11.70;;;;;;;23.80;68.74;98816.48;106145;1271;95066;-78
2022/08/13 11:30:50;;;;;;;20.90;12.90;;;;;;;23.81;68.88;98813.98;106184;1271;107831;-81
2022/08/13 11:33:23;;;;;;;20.60;12.40;;;;;;;23.81;68.58;98813.95;106119;1272;96652;-81
2022/08/13 11:36:17;;;;;;;19.50;11.90;;;;;;;23.83;68.53;98815.42;106223;1271;96520;-82
2022/08/13 11:38:45;;;;;;;20.50;12.20;;;;;;;23.85;68.58;98814.15;106140;1271;110055;-82
2022/08/13 11:41:16;;;;;;;20.30;12.80;;;;;;;23.87;68.47;98811.86;106287;1271;96344;-78
2022/08/13 11:43:53;;;;;;;20.00;12.60;;;;;;;23.89;68.30;98810.90;106163;1272;107731;-79
2022/08/13 11:46:30;;;;;;;21.00;12.10;;;;;;;23.90;68.34;98810.70;106212;1271;96523;-78
2022/08/13 11:48:57;;;;;;;20.50;11.60;;;;;;;23.90;68.23;98807.02;106257;1271;94527;-77
2022/08/13 11:51:48;;;;;;;21.90;12.30;;;;;;;23.94;68.28;98805.70;106197;1271;109979;-81
2022/08/13 11:54:25;;;;;;;20.30;12.10;;;;;;;24.00;68.30;98802.23;106224;1270;94515;-81
2022/08/13 11:57:05;;;;;;;23.80;13.10;;;;;;;24.07;68.16;98805.41;106278;1271;107276;-79
2022/08/13 11:59:36;;;;;;;21.00;11.90;;;;;;;24.14;68.07;98800.04;106235;1271;96527;-80
2022/08/13 12:02:13;;;;;;;18.90;11.50;;;;;;;24.20;68.01;98797.05;106300;1271;96628;-79
2022/08/13 12:04:45;;;;;;;19.90;11.30;;;;;;;24.18;67.85;98797.83;106142;1271;108219;-79
2022/08/13 12:07:25;;;;;;;20.60;11.80;;;;;;;24.07;67.66;98793.17;106256;1271;94498;-80
2022/08/13 12:09:56;;;;;;;20.60;11.70;;;;;;;23.99;67.64;98787.71;106185;1271;106728;-78
2022/08/13 12:12:28;;;;;;;22.60;11.70;;;;;;;24.00;67.76;98784.68;106187;1271;96520;-78
2022/08/13 12:15:08;;;;;;;19.70;11.70;;;;;;;24.07;67.71;98780.34;106139;1272;96575;-80
2022/08/13 12:17:42;;;;;;;21.80;12.00;;;;;;;24.21;67.61;98776.86;106214;1271;108249;-79